Time;durP1;ratioP1;P1;durP2;ratioP2;P2;SDS_P1;SDS_P2;PMS_P1;PMS_P2;Temp;Humidity;BMP_temperature;BMP_pressure;BME280_temperature;BME280_humidity;BME280_pressure;Samples;Min_cycle;Max_cycle;Signal;HPM_P1;HPM_P2
2023/03/02 00:00:33;;;;;;;28.27;14.90;;;1.70;99.90;;;;;;4992225;28;20211;-64
2023/03/02 00:03:00;;;;;;;22.83;13.33;;;1.80;99.90;;;;;;5030097;28;20552;-63
2023/03/02 00:05:28;;;;;;;32.40;14.37;;;1.80;99.90;;;;;;5037828;28;20228;-63
2023/03/02 00:07:55;;;;;;;29.37;14.80;;;1.70;99.90;;;;;;5020620;28;20199;-63
2023/03/02 00:10:21;;;;;;;27.23;13.63;;;1.60;99.90;;;;;;5031662;28;20320;-63
2023/03/02 00:12:50;;;;;;;22.60;13.37;;;1.60;99.90;;;;;;5039281;28;20726;-63
2023/03/02 00:15:16;;;;;;;24.47;13.40;;;1.60;99.90;;;;;;4983152;28;20544;-64
2023/03/02 00:17:43;;;;;;;26.33;14.07;;;1.60;99.90;;;;;;5042693;28;20213;-63
2023/03/02 00:20:11;;;;;;;32.17;14.67;;;1.60;99.90;;;;;;5041127;28;20850;-63
2023/03/02 00:22:38;;;;;;;33.03;13.67;;;1.50;99.90;;;;;;5029385;28;20208;-63
2023/03/02 00:25:06;;;;;;;25.40;13.53;;;1.60;99.90;;;;;;5019961;28;20199;-63
2023/03/02 00:27:33;;;;;;;35.33;13.77;;;1.60;99.90;;;;;;5040114;28;20733;-63
2023/03/02 00:30:02;;;;;;;27.07;13.07;;;1.50;99.90;;;;;;4988653;28;20203;-64
2023/03/02 00:32:28;;;;;;;35.93;12.20;;;1.50;99.90;;;;;;5036480;28;20216;-63
2023/03/02 00:34:55;;;;;;;26.33;13.30;;;1.40;99.90;;;;;;5035738;28;20201;-63
2023/03/02 00:37:24;;;;;;;27.80;13.33;;;1.40;99.90;;;;;;5041199;28;20198;-63
2023/03/02 00:39:51;;;;;;;31.50;13.73;;;1.40;99.90;;;;;;5021383;28;20202;-63
2023/03/02 00:42:18;;;;;;;32.60;13.77;;;1.30;99.90;;;;;;5041898;28;20232;-63
2023/03/02 00:44:45;;;;;;;32.20;13.37;;;2.10;99.90;;;;;;5020806;28;20598;-63
2023/03/02 00:47:13;;;;;;;41.13;14.70;;;1.30;99.90;;;;;;4993178;28;20224;-63
2023/03/02 00:49:40;;;;;;;58.50;14.70;;;1.30;99.90;;;;;;5037395;28;20203;-63
2023/03/02 00:52:07;;;;;;;27.17;14.60;;;1.20;99.90;;;;;;5040326;28;20684;-63
2023/03/02 00:54:34;;;;;;;23.20;13.67;;;1.20;99.90;;;;;;5024880;28;20209;-63
2023/03/02 00:57:01;;;;;;;26.43;13.00;;;1.30;99.90;;;;;;5034453;28;20581;-63
2023/03/02 00:59:27;;;;;;;28.93;13.70;;;1.30;99.90;;;;;;5023508;28;20688;-63
2023/03/02 01:01:57;;;;;;;40.13;13.60;;;1.30;99.90;;;;;;4986853;28;20528;-63
2023/03/02 01:04:28;;;;;;;42.17;14.23;;;1.20;99.90;;;;;;5036628;28;20398;-63
2023/03/02 01:06:55;;;;;;;29.30;13.07;;;1.10;99.90;;;;;;5039797;28;20348;-63
2023/03/02 01:09:22;;;;;;;31.43;13.40;;;1.00;99.90;;;;;;5026408;28;20670;-63
2023/03/02 01:11:49;;;;;;;99.43;13.60;;;1.00;99.90;;;;;;5027193;28;20452;-63
2023/03/02 01:14:15;;;;;;;30.70;12.90;;;0.90;99.90;;;;;;5030892;28;20394;-63
2023/03/02 01:16:42;;;;;;;31.33;12.83;;;1.00;99.90;;;;;;5031756;28;20210;-63
2023/03/02 01:19:09;;;;;;;38.90;13.07;;;1.00;99.90;;;;;;5013858;28;20309;-63
2023/03/02 01:21:37;;;;;;;65.07;14.63;;;1.00;99.90;;;;;;5045796;28;20205;-63
2023/03/02 01:24:05;;;;;;;34.40;13.23;;;1.00;99.90;;;;;;5041478;28;20908;-63
2023/03/02 01:26:32;;;;;;;23.73;12.13;;;1.10;99.90;;;;;;5030860;28;20236;-63
2023/03/02 01:28:58;;;;;;;79.47;13.13;;;1.00;99.90;;;;;;5033230;28;20194;-64
2023/03/02 01:31:27;;;;;;;31.10;12.03;;;0.90;99.90;;;;;;5023316;28;20515;-63
2023/03/02 01:33:54;;;;;;;26.77;12.33;;;1.00;99.90;;;;;;5000949;28;20215;-63
2023/03/02 01:36:22;;;;;;;31.87;12.63;;;1.00;99.90;;;;;;5036519;28;20993;-63
2023/03/02 01:38:52;;;;;;;53.07;13.43;;;1.00;99.90;;;;;;5039528;28;20197;-63
2023/03/02 01:41:20;;;;;;;34.93;12.10;;;0.90;99.90;;;;;;5023375;28;20839;-64
2023/03/02 01:43:47;;;;;;;55.33;13.13;;;0.90;99.90;;;;;;5036365;28;20215;-63
2023/03/02 01:46:15;;;;;;;49.87;11.93;;;0.90;99.90;;;;;;5019466;28;20222;-63
2023/03/02 01:48:46;;;;;;;36.60;12.93;;;0.80;99.90;;;;;;4999004;28;20212;-63
2023/03/02 01:51:17;;;;;;;39.87;14.17;;;0.80;99.90;;;;;;5038305;28;21070;-63
2023/03/02 01:53:46;;;;;;;89.63;14.20;;;1.00;99.90;;;;;;5041673;28;20202;-63
2023/03/02 01:56:17;;;;;;;36.90;12.03;;;0.90;99.90;;;;;;5023453;28;20209;-63
2023/03/02 01:58:45;;;;;;;75.63;12.90;;;0.90;99.90;;;;;;5042712;28;20749;-63
2023/03/02 02:01:15;;;;;;;23.40;12.63;;;0.80;99.90;;;;;;5022995;28;20785;-63
2023/03/02 02:03:43;;;;;;;67.30;12.83;;;0.80;99.90;;;;;;5028793;28;20649;-63
2023/03/02 02:06:17;;;;;;;52.50;12.60;;;0.70;99.90;;;;;;5006697;28;20224;-64
2023/03/02 02:08:44;;;;;;;33.63;11.20;;;0.60;99.90;;;;;;5039696;28;20205;-63
2023/03/02 02:11:11;;;;;;;59.40;12.03;;;0.50;99.90;;;;;;5022225;28;20435;-63
2023/03/02 02:13:40;;;;;;;32.93;11.37;;;0.40;99.90;;;;;;5042125;28;20207;-64
2023/03/02 02:16:07;;;;;;;33.77;13.03;;;0.40;99.90;;;;;;5019107;28;20428;-63
2023/03/02 02:18:37;;;;;;;49.10;12.47;;;0.50;99.90;;;;;;5028678;28;20219;-63
2023/03/02 02:21:05;;;;;;;41.13;11.90;;;0.40;99.90;;;;;;5010294;28;20212;-63
2023/03/02 02:23:39;;;;;;;25.63;11.13;;;0.50;99.90;;;;;;5042298;28;20202;-63
2023/03/02 02:26:24;;;;;;;37.00;12.17;;;0.60;99.90;;;;;;5027366;28;20206;-64
2023/03/02 02:28:57;;;;;;;33.03;11.17;;;0.70;99.90;;;;;;5044619;28;20199;-63
2023/03/02 02:31:33;;;;;;;50.03;12.27;;;0.70;99.90;;;;;;5027805;28;20202;-64
2023/03/02 02:34:05;;;;;;;35.20;11.43;;;0.70;99.90;;;;;;5035574;28;20669;-63
2023/03/02 02:36:35;;;;;;;35.03;11.00;;;0.80;99.90;;;;;;5010817;28;20205;-63
2023/03/02 02:39:05;;;;;;;75.10;12.53;;;0.80;99.90;;;;;;5041955;28;20190;-63
2023/03/02 02:41:37;;;;;;;31.67;11.10;;;0.70;99.90;;;;;;5043647;28;20224;-63
2023/03/02 02:44:04;;;;;;;36.20;10.77;;;0.60;99.90;;;;;;5028854;28;20693;-63
2023/03/02 02:46:32;;;;;;;16.77;10.33;;;0.50;99.90;;;;;;5041450;28;20251;-63
2023/03/02 02:49:00;;;;;;;30.97;10.20;;;0.60;99.90;;;;;;5012475;28;20201;-63
2023/03/02 02:51:29;;;;;;;21.43;10.20;;;0.50;99.90;;;;;;5038107;28;20636;-63
2023/03/02 02:53:58;;;;;;;30.00;9.97;;;0.50;99.90;;;;;;5009203;28;20209;-63
2023/03/02 02:56:27;;;;;;;30.00;10.97;;;0.50;99.90;;;;;;5038432;28;20193;-63
2023/03/02 02:58:58;;;;;;;46.70;10.33;;;0.40;99.90;;;;;;5029433;28;20751;-63
2023/03/02 03:01:25;;;;;;;50.37;11.03;;;0.40;99.90;;;;;;5040371;28;20412;-63
2023/03/02 03:03:54;;;;;;;24.43;10.43;;;0.40;99.90;;;;;;5025681;28;20728;-63
2023/03/02 03:06:25;;;;;;;19.53;9.97;;;0.50;99.90;;;;;;5036680;28;20691;-63
2023/03/02 03:08:58;;;;;;;26.47;10.77;;;0.60;99.90;;;;;;5003110;28;20216;-63
2023/03/02 03:11:27;;;;;;;16.03;9.90;;;0.50;99.90;;;;;;5043094;28;20515;-63
2023/03/02 03:14:01;;;;;;;41.67;10.40;;;0.50;99.90;;;;;;5027052;28;20207;-63
2023/03/02 03:16:30;;;;;;;15.67;9.83;;;0.50;99.90;;;;;;5041491;28;20200;-63
2023/03/02 03:19:01;;;;;;;17.20;11.20;;;0.50;99.90;;;;;;5023594;28;20214;-63
2023/03/02 03:21:28;;;;;;;23.00;10.10;;;0.50;99.90;;;;;;5032074;28;20197;-63
2023/03/02 03:23:54;;;;;;;24.67;10.17;;;0.40;99.90;;;;;;4989752;28;20216;-63
2023/03/02 03:26:21;;;;;;;33.63;10.13;;;0.40;99.90;;;;;;5037102;28;20205;-63
2023/03/02 03:28:48;;;;;;;45.33;10.50;;;0.50;99.90;;;;;;5023936;28;20207;-63
2023/03/02 03:31:16;;;;;;;16.73;10.63;;;0.50;99.90;;;;;;5032687;28;20201;-63
2023/03/02 03:33:43;;;;;;;51.37;10.60;;;0.50;99.90;;;;;;5024210;28;20598;-63
2023/03/02 03:36:10;;;;;;;26.67;10.70;;;0.60;99.90;;;;;;5036930;28;21028;-63
2023/03/02 03:38:37;;;;;;;47.43;11.43;;;0.60;99.90;;;;;;4997236;28;20661;-64
2023/03/02 03:41:04;;;;;;;46.37;11.33;;;0.70;99.90;;;;;;5008962;28;20208;-63
2023/03/02 03:43:31;;;;;;;26.00;11.03;;;0.70;99.90;;;;;;5002515;28;20508;-63
2023/03/02 03:45:58;;;;;;;53.73;11.73;;;0.70;99.90;;;;;;5014935;28;20235;-64
2023/03/02 03:48:26;;;;;;;46.13;11.43;;;0.70;99.90;;;;;;5006508;28;20229;-63
2023/03/02 03:50:53;;;;;;;36.93;11.27;;;0.70;99.90;;;;;;5038753;28;20206;-63
2023/03/02 03:53:19;;;;;;;40.10;11.03;;;0.70;99.90;;;;;;5042198;28;20201;-63
2023/03/02 03:55:46;;;;;;;69.27;11.20;;;0.70;99.90;;;;;;5004073;28;20209;-63
2023/03/02 03:58:13;;;;;;;28.70;9.77;;;0.50;99.90;;;;;;5033530;28;20291;-63
2023/03/02 04:00:40;;;;;;;30.93;10.10;;;0.50;99.90;;;;;;4999917;28;20744;-64
2023/03/02 04:03:07;;;;;;;43.23;10.87;;;0.50;99.90;;;;;;5031921;28;20308;-63
2023/03/02 04:05:35;;;;;;;28.83;10.53;;;0.40;99.90;;;;;;5024531;28;20196;-63
2023/03/02 04:08:02;;;;;;;32.20;10.07;;;0.50;99.90;;;;;;5019563;28;20461;-63
2023/03/02 04:10:29;;;;;;;34.17;11.07;;;0.40;99.90;;;;;;5004122;28;20700;-63
2023/03/02 04:12:56;;;;;;;24.33;9.77;;;0.30;99.90;;;;;;5034775;28;20227;-63
2023/03/02 04:15:23;;;;;;;25.73;10.30;;;0.50;99.90;;;;;;5008792;28;20213;-63
2023/03/02 04:17:51;;;;;;;22.97;10.33;;;0.30;99.90;;;;;;5017133;28;20357;-64
2023/03/02 04:20:18;;;;;;;29.43;9.43;;;0.30;99.90;;;;;;5017641;28;20687;-63
2023/03/02 04:22:48;;;;;;;37.00;10.30;;;0.30;99.90;;;;;;5023154;28;20281;-63
2023/03/02 04:25:18;;;;;;;30.03;11.00;;;0.30;99.90;;;;;;5001327;28;20210;-63
2023/03/02 04:27:45;;;;;;;22.70;10.00;;;0.20;99.90;;;;;;5025628;28;20653;-63
2023/03/02 04:30:13;;;;;;;21.93;9.43;;;0.20;99.90;;;;;;5029065;28;20211;-63
2023/03/02 04:32:40;;;;;;;42.57;10.73;;;0.10;99.90;;;;;;5012724;28;20219;-63
2023/03/02 04:35:07;;;;;;;30.97;10.17;;;0.00;99.90;;;;;;5022436;28;22969;-63
2023/03/02 04:37:34;;;;;;;34.43;11.17;;;0.10;99.90;;;;;;5028096;28;20210;-63
2023/03/02 04:40:03;;;;;;;73.33;11.80;;;0.90;99.90;;;;;;5032069;28;20333;-63
2023/03/02 04:42:30;;;;;;;36.77;9.77;;;0.10;99.90;;;;;;5002466;28;21971;-63
2023/03/02 04:44:56;;;;;;;26.73;9.87;;;0.00;99.90;;;;;;5022618;28;20588;-63
2023/03/02 04:47:23;;;;;;;21.70;10.00;;;0.00;99.90;;;;;;5012019;28;20447;-63
2023/03/02 04:49:53;;;;;;;17.77;8.37;;;0.10;99.90;;;;;;5013146;28;20395;-63
2023/03/02 04:52:20;;;;;;;15.43;8.73;;;0.00;99.90;;;;;;5024578;28;20281;-63
2023/03/02 04:54:47;;;;;;;30.40;8.63;;;0.00;99.90;;;;;;5021587;28;20221;-63
2023/03/02 04:57:15;;;;;;;24.03;9.47;;;0.10;99.90;;;;;;5005920;28;20223;-63
2023/03/02 04:59:42;;;;;;;37.87;8.83;;;0.10;99.90;;;;;;5029439;28;20198;-63
2023/03/02 05:02:09;;;;;;;34.63;9.07;;;-0.10;99.90;;;;;;5023566;28;20196;-63
2023/03/02 05:04:36;;;;;;;21.43;8.40;;;-0.10;99.90;;;;;;5038439;28;20194;-63
2023/03/02 05:07:03;;;;;;;23.40;8.90;;;-0.20;99.90;;;;;;5017646;28;20254;-63
2023/03/02 05:09:29;;;;;;;25.97;8.07;;;-0.20;99.90;;;;;;5035882;28;20205;-63
2023/03/02 05:11:57;;;;;;;23.33;8.53;;;-0.20;99.90;;;;;;5003829;28;20209;-63
2023/03/02 05:14:26;;;;;;;12.73;7.97;;;-0.30;99.90;;;;;;5037455;28;20768;-63
2023/03/02 05:16:53;;;;;;;14.67;8.43;;;-0.20;99.90;;;;;;5024511;28;20208;-63
2023/03/02 05:19:20;;;;;;;19.60;8.47;;;0.20;99.90;;;;;;5028986;28;20432;-63
2023/03/02 05:21:47;;;;;;;14.13;7.13;;;-0.10;99.90;;;;;;5018653;28;20642;-63
2023/03/02 05:24:14;;;;;;;14.23;7.77;;;-0.20;99.90;;;;;;5028654;28;20201;-63
2023/03/02 05:26:41;;;;;;;19.80;8.03;;;-0.30;99.90;;;;;;5036307;28;20214;-63
2023/03/02 05:29:08;;;;;;;28.77;8.80;;;-0.30;99.90;;;;;;4996914;28;20240;-63
2023/03/02 05:31:38;;;;;;;32.70;9.00;;;-0.30;99.90;;;;;;5024140;28;20195;-63
2023/03/02 05:34:07;;;;;;;13.10;7.73;;;-0.20;99.90;;;;;;5018590;28;20194;-63
2023/03/02 05:36:34;;;;;;;12.97;8.77;;;-0.20;99.90;;;;;;5011812;28;20206;-63
2023/03/02 05:39:01;;;;;;;44.23;9.27;;;-0.10;99.90;;;;;;5010675;28;20232;-63
2023/03/02 05:41:28;;;;;;;15.33;7.87;;;-0.20;99.90;;;;;;5016064;28;20208;-63
2023/03/02 05:43:54;;;;;;;17.27;8.23;;;-0.20;99.90;;;;;;4994972;28;20221;-63
2023/03/02 05:46:21;;;;;;;19.60;7.77;;;-0.10;99.90;;;;;;5015327;28;20204;-63
2023/03/02 05:48:49;;;;;;;16.80;8.33;;;-0.10;99.90;;;;;;4997160;28;21225;-63
2023/03/02 05:51:16;;;;;;;20.33;8.67;;;0.10;99.90;;;;;;5021212;28;20206;-63
2023/03/02 05:53:43;;;;;;;22.20;7.47;;;0.10;99.90;;;;;;5018995;28;20203;-62
2023/03/02 05:56:10;;;;;;;18.17;8.37;;;0.00;99.90;;;;;;4997656;28;20691;-63
2023/03/02 05:58:37;;;;;;;17.07;7.37;;;0.00;99.90;;;;;;4991017;28;20753;-63
2023/03/02 06:01:08;;;;;;;14.10;8.10;;;0.00;99.90;;;;;;5018500;28;20439;-63
2023/03/02 06:03:35;;;;;;;17.47;7.77;;;-0.10;99.90;;;;;;4991608;28;20201;-63
2023/03/02 06:06:04;;;;;;;20.63;8.23;;;-0.20;99.90;;;;;;5025998;28;20572;-62
2023/03/02 06:08:31;;;;;;;16.07;8.40;;;-0.20;99.90;;;;;;5013991;28;20237;-63
2023/03/02 06:10:58;;;;;;;13.77;8.20;;;-0.10;99.90;;;;;;5033135;28;20213;-63
2023/03/02 06:13:25;;;;;;;13.17;7.83;;;0.00;99.90;;;;;;5031764;28;20194;-63
2023/03/02 06:15:51;;;;;;;17.00;8.50;;;0.00;99.90;;;;;;4991329;28;20198;-62
2023/03/02 06:18:18;;;;;;;30.13;8.47;;;-0.10;99.90;;;;;;5024653;28;20215;-63
2023/03/02 06:20:45;;;;;;;24.47;8.13;;;-0.10;99.90;;;;;;5012723;28;20319;-63
2023/03/02 06:23:13;;;;;;;18.43;7.90;;;0.00;99.90;;;;;;5004670;28;20218;-63
2023/03/02 06:25:46;;;;;;;15.20;6.90;;;-0.10;99.90;;;;;;5027090;28;20279;-63
2023/03/02 06:28:13;;;;;;;16.97;7.47;;;-0.10;99.90;;;;;;5011033;28;20710;-62
2023/03/02 06:30:40;;;;;;;10.23;7.30;;;-0.20;99.90;;;;;;4997113;28;20228;-63
2023/03/02 06:33:07;;;;;;;16.20;8.00;;;-0.10;99.90;;;;;;5035606;28;20230;-63
2023/03/02 06:35:34;;;;;;;15.17;7.57;;;-0.10;99.90;;;;;;5018032;28;20228;-63
2023/03/02 06:38:01;;;;;;;23.47;7.83;;;0.10;99.90;;;;;;5029770;28;20245;-62
2023/03/02 06:40:30;;;;;;;14.37;7.53;;;0.20;99.90;;;;;;5039426;28;20223;-63
2023/03/02 06:42:59;;;;;;;13.70;7.73;;;0.70;99.90;;;;;;5026643;28;20750;-62
2023/03/02 06:45:26;;;;;;;15.77;7.23;;;0.80;99.90;;;;;;5015650;28;22303;-63
2023/03/02 06:47:54;;;;;;;13.47;7.10;;;0.90;99.90;;;;;;5040845;28;20229;-62
2023/03/02 06:50:21;;;;;;;13.10;6.63;;;1.80;99.90;;;;;;5018437;28;21004;-63
2023/03/02 06:52:48;;;;;;;20.23;6.40;;;2.60;99.90;;;;;;5041029;28;20226;-63
2023/03/02 06:55:15;;;;;;;10.90;6.13;;;1.60;99.90;;;;;;5030573;28;20219;-63
2023/03/02 06:57:43;;;;;;;16.00;6.73;;;0.90;99.90;;;;;;5029754;28;20764;-63
2023/03/02 07:00:16;;;;;;;18.53;7.00;;;0.80;99.90;;;;;;5037877;28;20381;-64
2023/03/02 07:02:43;;;;;;;18.37;6.67;;;0.60;99.90;;;;;;5024135;28;20479;-63
2023/03/02 07:05:10;;;;;;;16.93;6.80;;;0.50;99.90;;;;;;5034699;28;20669;-64
2023/03/02 07:07:37;;;;;;;15.00;6.80;;;0.20;99.90;;;;;;5003788;28;20595;-63
2023/03/02 07:10:05;;;;;;;10.70;6.10;;;0.10;99.90;;;;;;5028593;28;20197;-63
2023/03/02 07:12:32;;;;;;;11.30;6.40;;;0.10;99.90;;;;;;5015808;28;20668;-63
2023/03/02 07:15:00;;;;;;;10.60;6.30;;;0.10;99.90;;;;;;5038159;28;20202;-63
2023/03/02 07:17:27;;;;;;;19.27;7.03;;;0.20;99.90;;;;;;5005833;28;20331;-63
2023/03/02 07:19:54;;;;;;;11.83;5.87;;;0.20;99.90;;;;;;5041771;28;20223;-63
2023/03/02 07:22:21;;;;;;;18.77;6.40;;;0.30;99.90;;;;;;5014927;28;20208;-63
2023/03/02 07:24:48;;;;;;;11.33;6.37;;;0.10;99.90;;;;;;5020395;28;20319;-63
2023/03/02 07:27:15;;;;;;;12.63;7.20;;;0.00;99.90;;;;;;5030582;28;20202;-63
2023/03/02 07:29:42;;;;;;;14.77;6.97;;;0.00;99.90;;;;;;5035369;28;20232;-63
2023/03/02 07:32:10;;;;;;;11.47;6.27;;;0.10;99.90;;;;;;5009679;28;20212;-63
2023/03/02 07:34:37;;;;;;;15.07;6.73;;;0.10;99.90;;;;;;5033805;28;20228;-63
2023/03/02 07:37:04;;;;;;;11.93;7.13;;;0.00;99.90;;;;;;5025282;28;20201;-63
2023/03/02 07:39:30;;;;;;;11.70;5.30;;;0.00;99.90;;;;;;5014574;28;20465;-63
2023/03/02 07:41:59;;;;;;;21.07;7.13;;;0.00;99.90;;;;;;5036090;28;20217;-63
2023/03/02 07:44:26;;;;;;;22.37;7.10;;;-0.10;99.90;;;;;;5026514;28;21276;-63
2023/03/02 07:46:53;;;;;;;19.50;6.73;;;0.20;99.90;;;;;;5015371;28;20575;-63
2023/03/02 07:49:21;;;;;;;11.43;6.77;;;0.00;99.90;;;;;;5039267;28;20231;-63
2023/03/02 07:51:48;;;;;;;11.10;6.30;;;0.00;99.90;;;;;;5023774;28;20212;-63
2023/03/02 07:54:15;;;;;;;13.43;6.63;;;0.00;99.90;;;;;;5026105;28;20209;-63
2023/03/02 07:56:41;;;;;;;11.80;6.70;;;0.00;99.90;;;;;;5023778;28;20332;-64
2023/03/02 07:59:08;;;;;;;10.67;5.93;;;0.10;99.90;;;;;;5041727;28;20221;-63
2023/03/02 08:01:35;;;;;;;14.90;6.30;;;0.10;99.90;;;;;;5028636;28;20753;-63
2023/03/02 08:04:02;;;;;;;10.57;6.20;;;0.10;99.90;;;;;;5010111;28;20213;-63
2023/03/02 08:06:30;;;;;;;11.80;6.77;;;0.10;99.90;;;;;;5020904;28;20211;-63
2023/03/02 08:08:59;;;;;;;10.30;6.13;;;0.20;99.90;;;;;;5012653;28;20678;-63
2023/03/02 08:11:26;;;;;;;11.60;6.93;;;0.30;99.90;;;;;;5014050;28;20519;-63
2023/03/02 08:13:52;;;;;;;8.97;5.67;;;0.20;99.90;;;;;;5014100;28;20337;-64
2023/03/02 08:16:20;;;;;;;9.53;6.33;;;0.20;99.90;;;;;;5023785;28;20227;-63
2023/03/02 08:18:47;;;;;;;17.73;6.53;;;0.20;99.90;;;;;;5004813;28;20224;-63
2023/03/02 08:21:16;;;;;;;15.47;6.47;;;0.20;99.90;;;;;;5031186;28;20225;-64
2023/03/02 08:23:45;;;;;;;14.50;7.17;;;0.30;99.90;;;;;;4999612;28;20613;-64
2023/03/02 08:26:12;;;;;;;20.97;6.57;;;0.20;99.90;;;;;;5015983;28;20228;-63
2023/03/02 08:28:39;;;;;;;24.83;6.83;;;0.20;99.90;;;;;;5016581;28;20491;-63
2023/03/02 08:31:08;;;;;;;18.33;5.83;;;0.10;99.90;;;;;;5011520;28;20208;-64
2023/03/02 08:33:36;;;;;;;12.67;6.30;;;0.10;99.90;;;;;;5000223;28;20593;-63
2023/03/02 08:36:05;;;;;;;9.37;5.83;;;-0.10;99.90;;;;;;5033787;28;20219;-64
2023/03/02 08:38:33;;;;;;;16.20;6.40;;;0.00;99.90;;;;;;5019321;28;20232;-63
2023/03/02 08:41:05;;;;;;;17.70;6.60;;;-0.10;99.90;;;;;;5009126;28;20212;-63
2023/03/02 08:43:32;;;;;;;18.97;5.80;;;-0.10;99.90;;;;;;4996936;28;21158;-63
2023/03/02 08:45:59;;;;;;;16.57;6.23;;;0.00;99.90;;;;;;5022253;28;20744;-63
2023/03/02 08:48:27;;;;;;;9.80;5.93;;;0.00;99.90;;;;;;5016340;28;20223;-63
2023/03/02 08:50:55;;;;;;;12.10;6.40;;;0.10;99.90;;;;;;5000886;28;20220;-63
2023/03/02 08:53:22;;;;;;;9.87;6.47;;;0.20;99.90;;;;;;5019370;28;20209;-63
2023/03/02 08:55:49;;;;;;;12.00;6.60;;;0.30;99.90;;;;;;5011482;28;20237;-63
2023/03/02 08:58:17;;;;;;;12.60;6.57;;;0.40;99.90;;;;;;5008115;28;20784;-63
2023/03/02 09:00:44;;;;;;;11.27;6.17;;;0.30;99.90;;;;;;5005479;28;20201;-63
2023/03/02 09:03:11;;;;;;;8.67;5.80;;;0.30;99.90;;;;;;5017320;28;20220;-63
2023/03/02 09:05:37;;;;;;;15.57;6.60;;;0.30;99.90;;;;;;5005020;28;20225;-63
2023/03/02 09:08:05;;;;;;;9.73;5.77;;;0.40;99.90;;;;;;5020403;28;20210;-63
2023/03/02 09:10:31;;;;;;;15.00;6.03;;;0.40;99.90;;;;;;5029414;28;20499;-63
2023/03/02 09:12:58;;;;;;;11.73;6.47;;;0.50;99.90;;;;;;5021715;28;20222;-63
2023/03/02 09:15:26;;;;;;;11.27;6.67;;;0.60;99.90;;;;;;5015000;28;20787;-63
2023/03/02 09:17:53;;;;;;;10.43;5.90;;;0.40;99.90;;;;;;5000618;28;20582;-63
2023/03/02 09:20:20;;;;;;;9.33;5.80;;;0.50;99.90;;;;;;4993187;28;20242;-63
2023/03/02 09:22:49;;;;;;;10.67;6.47;;;0.60;99.90;;;;;;5020142;28;20215;-64
2023/03/02 09:25:17;;;;;;;10.60;6.17;;;0.60;99.90;;;;;;5013442;28;20224;-63
2023/03/02 09:27:44;;;;;;;10.20;6.23;;;0.60;99.90;;;;;;5011412;28;20299;-63
2023/03/02 09:30:13;;;;;;;9.93;5.50;;;0.50;99.90;;;;;;5034620;28;20227;-63
2023/03/02 09:32:41;;;;;;;10.93;6.13;;;0.50;99.90;;;;;;5028466;28;20225;-64
2023/03/02 09:35:09;;;;;;;10.83;6.13;;;0.60;99.90;;;;;;5027362;28;20201;-64
2023/03/02 09:37:37;;;;;;;12.40;6.07;;;0.60;99.90;;;;;;5014690;28;20212;-63
2023/03/02 09:40:10;;;;;;;12.73;6.33;;;0.50;99.90;;;;;;5033346;28;20241;-64
2023/03/02 09:43:06;;;;;;;12.87;7.13;;;0.50;99.90;;;;;;5026862;28;20222;-63
2023/03/02 09:45:46;;;;;;;8.17;5.63;;;0.60;99.90;;;;;;5031381;28;20671;-63
2023/03/02 09:48:23;;;;;;;29.47;7.40;;;0.70;99.90;;;;;;5037013;28;21023;-63
2023/03/02 09:51:00;;;;;;;11.63;5.90;;;0.60;99.90;;;;;;5026848;28;20197;-63
2023/03/02 09:53:40;;;;;;;12.17;7.10;;;0.60;99.90;;;;;;4996411;28;20518;-63
2023/03/02 09:56:15;;;;;;;11.57;6.40;;;0.70;99.90;;;;;;5030838;28;20204;-63
2023/03/02 09:58:47;;;;;;;13.13;7.17;;;0.80;99.90;;;;;;5017368;28;20203;-63
2023/03/02 10:01:20;;;;;;;13.73;7.33;;;0.80;99.90;;;;;;5021525;28;20213;-63
2023/03/02 10:03:55;;;;;;;15.43;7.43;;;0.80;99.90;;;;;;5024270;28;20197;-63
2023/03/02 10:06:22;;;;;;;10.63;7.07;;;0.80;99.90;;;;;;5027349;28;20489;-63
2023/03/02 10:08:49;;;;;;;11.47;6.97;;;0.90;99.90;;;;;;5007783;28;20694;-63
2023/03/02 10:11:22;;;;;;;10.97;7.23;;;0.80;99.90;;;;;;5018461;28;20204;-63
2023/03/02 10:13:54;;;;;;;11.53;7.17;;;0.90;99.90;;;;;;5023853;28;21445;-63
2023/03/02 10:16:30;;;;;;;11.17;7.20;;;1.00;99.90;;;;;;5014460;28;20520;-63
2023/03/02 10:19:06;;;;;;;9.90;6.70;;;1.10;99.90;;;;;;5037882;28;20686;-63
2023/03/02 10:21:38;;;;;;;12.27;7.10;;;1.10;99.90;;;;;;5028827;28;20627;-64
2023/03/02 10:24:15;;;;;;;8.57;5.80;;;1.10;99.90;;;;;;5010266;28;20218;-64
2023/03/02 10:26:44;;;;;;;9.73;5.67;;;1.20;99.90;;;;;;4998221;28;20718;-63
2023/03/02 10:29:39;;;;;;;10.37;6.27;;;1.10;99.90;;;;;;5006262;28;20847;-63
2023/03/02 10:32:17;;;;;;;10.87;6.67;;;1.20;99.90;;;;;;4987836;28;20685;-63
2023/03/02 10:34:45;;;;;;;10.37;6.30;;;1.10;99.90;;;;;;5040143;28;20591;-63
2023/03/02 10:37:14;;;;;;;8.23;5.77;;;1.30;99.90;;;;;;5023287;28;20443;-63
2023/03/02 10:39:41;;;;;;;9.67;6.13;;;1.40;99.90;;;;;;5006679;28;20333;-63
2023/03/02 10:42:16;;;;;;;9.43;6.00;;;1.40;99.90;;;;;;5017471;28;20211;-64
2023/03/02 10:44:48;;;;;;;12.80;6.93;;;1.40;99.90;;;;;;5023234;28;20570;-64
2023/03/02 10:47:28;;;;;;;11.63;8.67;;;1.40;99.90;;;;;;4995921;28;20939;-63
2023/03/02 10:49:57;;;;;;;12.60;7.80;;;1.50;99.90;;;;;;5010078;28;20231;-64
2023/03/02 10:52:26;;;;;;;10.57;6.27;;;1.60;99.90;;;;;;5017777;28;20216;-63
2023/03/02 10:55:02;;;;;;;11.20;6.47;;;1.70;99.90;;;;;;5014785;28;20219;-64
2023/03/02 10:57:35;;;;;;;10.43;6.73;;;1.80;99.90;;;;;;5025083;28;20841;-63
2023/03/02 11:00:10;;;;;;;8.53;5.53;;;1.70;99.90;;;;;;5013723;28;20267;-63
2023/03/02 11:02:37;;;;;;;9.97;6.20;;;1.70;99.90;;;;;;5006494;28;20213;-63
2023/03/02 11:05:26;;;;;;;11.80;5.60;;;1.70;99.90;;;;;;5017567;28;20233;-63
2023/03/02 11:07:54;;;;;;;10.07;6.23;;;1.70;99.90;;;;;;5010286;28;20311;-64
2023/03/02 11:10:23;;;;;;;10.50;6.03;;;1.80;99.90;;;;;;5006550;28;20257;-63
2023/03/02 11:12:51;;;;;;;8.47;5.30;;;1.70;99.90;;;;;;5023090;28;20200;-63
2023/03/02 11:15:25;;;;;;;10.63;6.40;;;1.60;99.90;;;;;;5026851;28;21436;-63
2023/03/02 11:17:59;;;;;;;10.30;6.20;;;1.70;99.90;;;;;;5007056;28;20293;-63
2023/03/02 11:20:30;;;;;;;9.90;6.10;;;1.70;99.90;;;;;;5016141;28;20211;-63
2023/03/02 11:23:08;;;;;;;9.67;5.77;;;1.80;99.90;;;;;;5015587;28;20203;-64
2023/03/02 11:25:39;;;;;;;9.57;5.90;;;1.80;99.90;;;;;;5031205;28;20564;-63
2023/03/02 11:28:12;;;;;;;11.80;6.67;;;1.70;99.90;;;;;;4991543;28;20215;-63
2023/03/02 11:30:46;;;;;;;9.27;5.97;;;1.80;99.90;;;;;;5010674;28;20460;-63
2023/03/02 11:33:19;;;;;;;10.93;6.60;;;1.80;99.90;;;;;;4998081;28;20587;-64
2023/03/02 11:35:52;;;;;;;11.10;6.70;;;1.80;99.90;;;;;;5007911;28;20662;-63
2023/03/02 11:38:24;;;;;;;10.07;6.83;;;1.80;99.90;;;;;;5008429;28;20865;-63
2023/03/02 11:40:56;;;;;;;9.37;5.77;;;1.90;99.90;;;;;;5017446;28;20207;-64
2023/03/02 11:43:23;;;;;;;10.80;6.43;;;1.90;99.90;;;;;;5014090;28;20199;-64
2023/03/02 11:45:56;;;;;;;9.57;5.73;;;2.00;99.90;;;;;;5022891;28;20199;-63
2023/03/02 11:48:28;;;;;;;10.80;5.83;;;2.10;99.90;;;;;;5024602;28;20760;-63
2023/03/02 11:51:00;;;;;;;10.97;6.43;;;2.10;99.90;;;;;;5002429;28;20224;-63
2023/03/02 11:53:33;;;;;;;11.23;6.30;;;2.10;99.90;;;;;;5018717;28;20820;-64
2023/03/02 11:56:00;;;;;;;11.27;6.43;;;2.10;99.90;;;;;;5031374;28;20570;-64
2023/03/02 11:58:29;;;;;;;9.93;6.47;;;2.20;99.90;;;;;;4995955;28;20552;-64
2023/03/02 12:00:56;;;;;;;12.37;6.93;;;2.20;99.90;;;;;;5021401;28;20215;-63
2023/03/02 12:03:37;;;;;;;12.67;6.63;;;2.20;99.90;;;;;;5019557;28;20219;-63
2023/03/02 12:06:08;;;;;;;10.33;6.53;;;2.30;99.90;;;;;;5003749;28;20196;-64
2023/03/02 12:08:39;;;;;;;11.50;7.00;;;2.40;99.90;;;;;;5032277;28;20197;-64
2023/03/02 12:11:08;;;;;;;12.60;6.83;;;2.40;99.90;;;;;;5016844;28;20601;-63
2023/03/02 12:13:37;;;;;;;10.33;6.53;;;2.50;99.90;;;;;;5008266;28;20212;-64
2023/03/02 12:16:05;;;;;;;12.77;7.00;;;2.50;99.90;;;;;;5024249;28;20197;-63
2023/03/02 12:18:49;;;;;;;8.40;5.70;;;2.60;99.90;;;;;;5019894;28;20211;-63
2023/03/02 12:21:19;;;;;;;8.27;6.07;;;2.60;99.90;;;;;;5024730;28;20204;-63
2023/03/02 12:23:59;;;;;;;11.83;6.63;;;2.60;99.90;;;;;;5020325;28;20211;-63
2023/03/02 12:26:31;;;;;;;11.60;6.97;;;2.70;99.90;;;;;;5021005;28;20485;-63
2023/03/02 12:29:01;;;;;;;9.50;6.23;;;2.70;99.90;;;;;;5006581;28;20679;-64
2023/03/02 12:31:44;;;;;;;9.67;6.47;;;2.70;99.90;;;;;;5026761;28;20760;-64
2023/03/02 12:34:34;;;;;;;8.90;6.23;;;2.70;99.90;;;;;;5021645;28;20497;-64
2023/03/02 12:37:07;;;;;;;15.67;6.83;;;2.70;99.90;;;;;;5019807;28;21123;-64
2023/03/02 12:40:04;;;;;;;11.73;7.23;;;2.80;99.90;;;;;;5019195;28;20221;-63
2023/03/02 12:42:47;;;;;;;11.03;6.37;;;2.80;99.90;;;;;;5024997;28;20748;-63
2023/03/02 12:45:23;;;;;;;9.87;6.33;;;2.90;99.90;;;;;;5007243;28;20679;-64
2023/03/02 12:47:56;;;;;;;9.93;6.77;;;2.90;99.90;;;;;;5031911;28;20529;-63
2023/03/02 12:50:26;;;;;;;12.13;7.10;;;3.00;99.90;;;;;;5026046;28;20240;-63
2023/03/02 12:53:02;;;;;;;11.03;7.67;;;3.00;99.90;;;;;;5019207;28;20328;-64